sensor_id;sensor_type;location;lat;lon;timestamp;P1;durP1;ratioP1;P2;durP2;ratioP2
20956;SDS011;10637;47.970;7.830;2023-05-10T00:02:26;7.40;;;2.00;;
20956;SDS011;10637;47.970;7.830;2023-05-10T00:07:28;5.97;;;2.00;;
20956;SDS011;10637;47.970;7.830;2023-05-10T00:12:30;7.07;;;2.33;;
20956;SDS011;10637;47.970;7.830;2023-05-10T00:17:31;6.83;;;1.90;;
20956;SDS011;10637;47.970;7.830;2023-05-10T00:22:33;6.10;;;2.17;;
20956;SDS011;10637;47.970;7.830;2023-05-10T00:27:35;5.53;;;2.03;;
20956;SDS011;10637;47.970;7.830;2023-05-10T00:32:37;6.63;;;2.10;;
20956;SDS011;10637;47.970;7.830;2023-05-10T00:37:39;5.80;;;2.10;;
20956;SDS011;10637;47.970;7.830;2023-05-10T00:42:41;6.53;;;2.10;;
20956;SDS011;10637;47.970;7.830;2023-05-10T00:47:43;5.60;;;2.30;;
20956;SDS011;10637;47.970;7.830;2023-05-10T00:52:45;7.40;;;2.20;;
20956;SDS011;10637;47.970;7.830;2023-05-10T00:57:47;6.77;;;2.37;;
20956;SDS011;10637;47.970;7.830;2023-05-10T01:02:49;7.93;;;2.33;;
20956;SDS011;10637;47.970;7.830;2023-05-10T01:07:51;5.93;;;2.57;;
20956;SDS011;10637;47.970;7.830;2023-05-10T01:12:53;7.47;;;2.60;;
20956;SDS011;10637;47.970;7.830;2023-05-10T01:17:55;7.97;;;2.70;;
20956;SDS011;10637;47.970;7.830;2023-05-10T01:28:34;7.37;;;2.90;;
20956;SDS011;10637;47.970;7.830;2023-05-10T01:39:17;9.67;;;3.03;;
20956;SDS011;10637;47.970;7.830;2023-05-10T01:44:40;11.63;;;3.63;;
20956;SDS011;10637;47.970;7.830;2023-05-10T01:50:01;6.30;;;2.60;;
20956;SDS011;10637;47.970;7.830;2023-05-10T01:55:05;5.93;;;2.40;;
20956;SDS011;10637;47.970;7.830;2023-05-10T02:00:10;7.40;;;2.80;;
20956;SDS011;10637;47.970;7.830;2023-05-10T02:05:13;7.90;;;2.60;;
20956;SDS011;10637;47.970;7.830;2023-05-10T02:10:17;7.70;;;2.90;;
20956;SDS011;10637;47.970;7.830;2023-05-10T02:15:22;6.30;;;2.60;;
20956;SDS011;10637;47.970;7.830;2023-05-10T02:20:26;7.33;;;2.70;;
20956;SDS011;10637;47.970;7.830;2023-05-10T02:25:28;8.03;;;2.60;;
20956;SDS011;10637;47.970;7.830;2023-05-10T02:30:31;6.90;;;2.70;;
20956;SDS011;10637;47.970;7.830;2023-05-10T02:35:34;6.57;;;2.33;;
20956;SDS011;10637;47.970;7.830;2023-05-10T02:40:39;6.03;;;2.50;;
20956;SDS011;10637;47.970;7.830;2023-05-10T02:45:42;7.33;;;2.60;;
20956;SDS011;10637;47.970;7.830;2023-05-10T02:50:47;7.17;;;2.60;;
20956;SDS011;10637;47.970;7.830;2023-05-10T02:55:53;6.70;;;2.50;;
20956;SDS011;10637;47.970;7.830;2023-05-10T03:01:00;7.33;;;2.60;;
20956;SDS011;10637;47.970;7.830;2023-05-10T03:06:02;8.67;;;2.60;;
20956;SDS011;10637;47.970;7.830;2023-05-10T03:11:10;9.83;;;2.70;;
20956;SDS011;10637;47.970;7.830;2023-05-10T03:16:41;7.17;;;2.50;;
20956;SDS011;10637;47.970;7.830;2023-05-10T03:21:49;6.77;;;2.93;;
20956;SDS011;10637;47.970;7.830;2023-05-10T03:26:54;6.73;;;2.83;;
20956;SDS011;10637;47.970;7.830;2023-05-10T03:31:59;7.03;;;2.80;;
20956;SDS011;10637;47.970;7.830;2023-05-10T03:37:01;8.10;;;3.23;;
20956;SDS011;10637;47.970;7.830;2023-05-10T03:42:03;10.97;;;2.97;;
20956;SDS011;10637;47.970;7.830;2023-05-10T03:47:05;9.57;;;3.23;;
20956;SDS011;10637;47.970;7.830;2023-05-10T03:52:07;6.83;;;3.00;;
20956;SDS011;10637;47.970;7.830;2023-05-10T03:57:09;8.10;;;2.80;;
20956;SDS011;10637;47.970;7.830;2023-05-10T04:02:10;9.07;;;3.30;;
20956;SDS011;10637;47.970;7.830;2023-05-10T04:07:12;6.93;;;2.93;;
20956;SDS011;10637;47.970;7.830;2023-05-10T04:12:14;8.33;;;3.10;;
20956;SDS011;10637;47.970;7.830;2023-05-10T04:17:15;14.20;;;6.27;;
20956;SDS011;10637;47.970;7.830;2023-05-10T04:22:17;18.93;;;10.90;;
20956;SDS011;10637;47.970;7.830;2023-05-10T04:27:19;21.13;;;11.20;;
20956;SDS011;10637;47.970;7.830;2023-05-10T04:32:21;11.77;;;5.90;;
20956;SDS011;10637;47.970;7.830;2023-05-10T04:37:22;11.20;;;4.70;;
20956;SDS011;10637;47.970;7.830;2023-05-10T04:42:24;15.63;;;7.33;;
20956;SDS011;10637;47.970;7.830;2023-05-10T04:47:26;22.37;;;7.50;;
20956;SDS011;10637;47.970;7.830;2023-05-10T04:52:28;15.27;;;6.20;;
20956;SDS011;10637;47.970;7.830;2023-05-10T04:57:30;18.77;;;9.07;;
20956;SDS011;10637;47.970;7.830;2023-05-10T05:02:31;19.03;;;8.83;;
20956;SDS011;10637;47.970;7.830;2023-05-10T05:07:33;14.80;;;7.07;;
20956;SDS011;10637;47.970;7.830;2023-05-10T05:12:35;9.47;;;4.17;;
20956;SDS011;10637;47.970;7.830;2023-05-10T05:17:36;13.00;;;5.80;;
20956;SDS011;10637;47.970;7.830;2023-05-10T05:22:38;11.67;;;4.20;;
20956;SDS011;10637;47.970;7.830;2023-05-10T05:27:40;10.43;;;3.80;;
20956;SDS011;10637;47.970;7.830;2023-05-10T05:32:42;15.47;;;2.97;;
20956;SDS011;10637;47.970;7.830;2023-05-10T05:37:44;8.80;;;3.40;;
20956;SDS011;10637;47.970;7.830;2023-05-10T05:42:45;9.43;;;3.23;;
20956;SDS011;10637;47.970;7.830;2023-05-10T05:47:47;7.60;;;3.07;;
20956;SDS011;10637;47.970;7.830;2023-05-10T05:52:49;8.77;;;3.20;;
20956;SDS011;10637;47.970;7.830;2023-05-10T05:57:52;9.07;;;3.10;;
20956;SDS011;10637;47.970;7.830;2023-05-10T06:02:54;7.90;;;3.00;;
20956;SDS011;10637;47.970;7.830;2023-05-10T06:07:56;8.60;;;2.80;;
20956;SDS011;10637;47.970;7.830;2023-05-10T06:13:00;9.87;;;3.00;;
20956;SDS011;10637;47.970;7.830;2023-05-10T06:18:02;9.00;;;3.00;;
20956;SDS011;10637;47.970;7.830;2023-05-10T06:23:04;9.37;;;3.93;;
20956;SDS011;10637;47.970;7.830;2023-05-10T06:28:05;10.27;;;3.47;;
20956;SDS011;10637;47.970;7.830;2023-05-10T06:33:07;13.27;;;4.47;;
20956;SDS011;10637;47.970;7.830;2023-05-10T06:38:09;7.97;;;2.90;;
20956;SDS011;10637;47.970;7.830;2023-05-10T06:43:11;7.27;;;2.80;;
20956;SDS011;10637;47.970;7.830;2023-05-10T06:48:12;8.70;;;3.17;;
20956;SDS011;10637;47.970;7.830;2023-05-10T06:53:14;10.23;;;3.73;;
20956;SDS011;10637;47.970;7.830;2023-05-10T06:58:16;10.40;;;3.33;;
20956;SDS011;10637;47.970;7.830;2023-05-10T07:03:18;13.33;;;4.23;;
20956;SDS011;10637;47.970;7.830;2023-05-10T07:08:19;12.57;;;4.10;;
20956;SDS011;10637;47.970;7.830;2023-05-10T07:13:21;8.03;;;3.33;;
20956;SDS011;10637;47.970;7.830;2023-05-10T07:18:23;8.13;;;2.90;;
20956;SDS011;10637;47.970;7.830;2023-05-10T07:23:25;9.07;;;3.07;;
20956;SDS011;10637;47.970;7.830;2023-05-10T07:28:27;10.77;;;3.87;;
20956;SDS011;10637;47.970;7.830;2023-05-10T07:33:29;9.87;;;3.33;;
20956;SDS011;10637;47.970;7.830;2023-05-10T07:38:30;10.27;;;3.20;;
20956;SDS011;10637;47.970;7.830;2023-05-10T07:43:32;11.97;;;3.97;;
20956;SDS011;10637;47.970;7.830;2023-05-10T07:48:34;10.80;;;3.87;;
20956;SDS011;10637;47.970;7.830;2023-05-10T07:53:36;9.93;;;3.17;;
20956;SDS011;10637;47.970;7.830;2023-05-10T07:58:38;9.87;;;3.23;;
20956;SDS011;10637;47.970;7.830;2023-05-10T08:03:40;9.47;;;3.30;;
20956;SDS011;10637;47.970;7.830;2023-05-10T08:08:41;10.87;;;3.73;;
20956;SDS011;10637;47.970;7.830;2023-05-10T08:13:47;11.63;;;3.80;;
20956;SDS011;10637;47.970;7.830;2023-05-10T08:18:49;7.00;;;2.67;;
20956;SDS011;10637;47.970;7.830;2023-05-10T08:23:52;11.33;;;3.10;;
20956;SDS011;10637;47.970;7.830;2023-05-10T08:28:53;8.20;;;2.60;;
20956;SDS011;10637;47.970;7.830;2023-05-10T08:33:55;10.47;;;3.70;;
20956;SDS011;10637;47.970;7.830;2023-05-10T08:38:57;8.43;;;2.33;;
20956;SDS011;10637;47.970;7.830;2023-05-10T08:43:59;10.03;;;2.40;;
20956;SDS011;10637;47.970;7.830;2023-05-10T08:49:06;8.47;;;2.40;;
20956;SDS011;10637;47.970;7.830;2023-05-10T08:54:11;10.13;;;2.40;;
20956;SDS011;10637;47.970;7.830;2023-05-10T08:59:13;8.73;;;2.37;;
20956;SDS011;10637;47.970;7.830;2023-05-10T09:04:16;9.63;;;2.27;;
20956;SDS011;10637;47.970;7.830;2023-05-10T09:09:18;9.50;;;2.53;;
20956;SDS011;10637;47.970;7.830;2023-05-10T09:14:21;7.87;;;2.27;;
20956;SDS011;10637;47.970;7.830;2023-05-10T09:19:24;6.70;;;2.27;;
20956;SDS011;10637;47.970;7.830;2023-05-10T09:24:26;6.40;;;1.93;;
20956;SDS011;10637;47.970;7.830;2023-05-10T09:29:38;8.87;;;2.80;;
20956;SDS011;10637;47.970;7.830;2023-05-10T09:34:43;8.67;;;2.20;;
20956;SDS011;10637;47.970;7.830;2023-05-10T09:39:46;6.77;;;2.00;;
20956;SDS011;10637;47.970;7.830;2023-05-10T09:44:47;10.77;;;2.20;;
20956;SDS011;10637;47.970;7.830;2023-05-10T09:49:50;7.47;;;1.87;;
20956;SDS011;10637;47.970;7.830;2023-05-10T09:54:57;8.07;;;1.60;;
20956;SDS011;10637;47.970;7.830;2023-05-10T09:59:59;9.13;;;1.67;;
20956;SDS011;10637;47.970;7.830;2023-05-10T10:05:02;6.93;;;1.60;;
20956;SDS011;10637;47.970;7.830;2023-05-10T10:10:05;8.73;;;1.80;;
20956;SDS011;10637;47.970;7.830;2023-05-10T10:15:12;5.53;;;1.50;;
20956;SDS011;10637;47.970;7.830;2023-05-10T10:20:17;9.23;;;1.90;;
20956;SDS011;10637;47.970;7.830;2023-05-10T10:25:21;7.47;;;1.70;;
20956;SDS011;10637;47.970;7.830;2023-05-10T10:35:36;7.67;;;1.90;;
20956;SDS011;10637;47.970;7.830;2023-05-10T10:40:39;6.73;;;1.67;;
20956;SDS011;10637;47.970;7.830;2023-05-10T10:45:41;8.23;;;1.80;;
20956;SDS011;10637;47.970;7.830;2023-05-10T10:50:43;7.30;;;1.60;;
20956;SDS011;10637;47.970;7.830;2023-05-10T10:55:47;7.50;;;1.57;;
20956;SDS011;10637;47.970;7.830;2023-05-10T11:00:49;7.70;;;1.40;;
20956;SDS011;10637;47.970;7.830;2023-05-10T11:05:53;6.87;;;1.60;;
20956;SDS011;10637;47.970;7.830;2023-05-10T11:21:18;7.80;;;1.90;;
20956;SDS011;10637;47.970;7.830;2023-05-10T11:26:20;9.60;;;2.07;;
20956;SDS011;10637;47.970;7.830;2023-05-10T11:31:24;9.43;;;1.93;;
20956;SDS011;10637;47.970;7.830;2023-05-10T11:36:28;9.77;;;2.10;;
20956;SDS011;10637;47.970;7.830;2023-05-10T11:41:33;10.73;;;2.00;;
20956;SDS011;10637;47.970;7.830;2023-05-10T11:46:35;9.00;;;2.07;;
20956;SDS011;10637;47.970;7.830;2023-05-10T11:51:37;9.80;;;2.40;;
20956;SDS011;10637;47.970;7.830;2023-05-10T11:56:40;8.33;;;2.00;;
20956;SDS011;10637;47.970;7.830;2023-05-10T12:01:42;9.47;;;2.20;;
20956;SDS011;10637;47.970;7.830;2023-05-10T12:06:44;6.77;;;1.90;;
20956;SDS011;10637;47.970;7.830;2023-05-10T12:11:47;7.50;;;1.67;;
20956;SDS011;10637;47.970;7.830;2023-05-10T12:16:49;5.37;;;1.30;;
20956;SDS011;10637;47.970;7.830;2023-05-10T12:21:52;7.70;;;1.67;;
20956;SDS011;10637;47.970;7.830;2023-05-10T12:26:53;5.17;;;1.50;;
20956;SDS011;10637;47.970;7.830;2023-05-10T12:31:56;6.17;;;1.60;;
20956;SDS011;10637;47.970;7.830;2023-05-10T12:36:59;7.90;;;1.80;;
20956;SDS011;10637;47.970;7.830;2023-05-10T12:42:01;8.90;;;1.70;;
20956;SDS011;10637;47.970;7.830;2023-05-10T12:47:03;8.37;;;1.90;;
20956;SDS011;10637;47.970;7.830;2023-05-10T12:52:05;7.23;;;1.63;;
20956;SDS011;10637;47.970;7.830;2023-05-10T12:57:07;15.47;;;2.33;;
20956;SDS011;10637;47.970;7.830;2023-05-10T13:02:08;16.63;;;2.47;;
20956;SDS011;10637;47.970;7.830;2023-05-10T13:07:11;24.90;;;3.33;;
20956;SDS011;10637;47.970;7.830;2023-05-10T13:12:12;8.03;;;1.90;;
20956;SDS011;10637;47.970;7.830;2023-05-10T13:17:14;20.70;;;2.60;;
20956;SDS011;10637;47.970;7.830;2023-05-10T13:22:16;15.97;;;2.50;;
20956;SDS011;10637;47.970;7.830;2023-05-10T13:27:32;7.13;;;2.10;;
20956;SDS011;10637;47.970;7.830;2023-05-10T13:32:34;7.90;;;2.10;;
20956;SDS011;10637;47.970;7.830;2023-05-10T13:37:36;22.53;;;2.93;;
20956;SDS011;10637;47.970;7.830;2023-05-10T13:42:38;11.10;;;1.90;;
20956;SDS011;10637;47.970;7.830;2023-05-10T13:47:40;30.70;;;3.23;;
20956;SDS011;10637;47.970;7.830;2023-05-10T13:52:42;7.77;;;1.60;;
20956;SDS011;10637;47.970;7.830;2023-05-10T13:57:44;24.80;;;2.77;;
20956;SDS011;10637;47.970;7.830;2023-05-10T14:02:46;12.73;;;1.80;;
20956;SDS011;10637;47.970;7.830;2023-05-10T14:07:48;11.63;;;3.23;;
20956;SDS011;10637;47.970;7.830;2023-05-10T14:12:49;11.77;;;3.27;;
20956;SDS011;10637;47.970;7.830;2023-05-10T14:17:51;9.60;;;2.77;;
20956;SDS011;10637;47.970;7.830;2023-05-10T14:22:53;7.10;;;1.90;;
20956;SDS011;10637;47.970;7.830;2023-05-10T14:27:55;7.97;;;2.37;;
20956;SDS011;10637;47.970;7.830;2023-05-10T14:32:57;9.63;;;3.10;;
20956;SDS011;10637;47.970;7.830;2023-05-10T14:37:59;6.37;;;1.73;;
20956;SDS011;10637;47.970;7.830;2023-05-10T14:43:01;9.10;;;2.77;;
20956;SDS011;10637;47.970;7.830;2023-05-10T14:48:03;8.97;;;2.17;;
20956;SDS011;10637;47.970;7.830;2023-05-10T14:53:06;11.23;;;2.60;;
20956;SDS011;10637;47.970;7.830;2023-05-10T14:58:07;11.23;;;3.20;;
20956;SDS011;10637;47.970;7.830;2023-05-10T15:03:09;9.73;;;2.83;;
20956;SDS011;10637;47.970;7.830;2023-05-10T15:08:11;6.37;;;1.60;;
20956;SDS011;10637;47.970;7.830;2023-05-10T15:13:13;7.67;;;1.90;;
20956;SDS011;10637;47.970;7.830;2023-05-10T15:18:15;11.93;;;3.33;;
20956;SDS011;10637;47.970;7.830;2023-05-10T15:23:19;6.20;;;1.60;;
20956;SDS011;10637;47.970;7.830;2023-05-10T15:28:21;4.57;;;1.23;;
20956;SDS011;10637;47.970;7.830;2023-05-10T15:33:23;5.97;;;1.40;;
20956;SDS011;10637;47.970;7.830;2023-05-10T15:38:25;5.20;;;1.40;;
20956;SDS011;10637;47.970;7.830;2023-05-10T15:43:27;3.77;;;1.30;;
20956;SDS011;10637;47.970;7.830;2023-05-10T15:48:29;4.73;;;1.50;;
20956;SDS011;10637;47.970;7.830;2023-05-10T15:53:32;4.60;;;1.27;;
20956;SDS011;10637;47.970;7.830;2023-05-10T15:58:34;7.00;;;1.77;;
20956;SDS011;10637;47.970;7.830;2023-05-10T16:03:35;8.37;;;2.33;;
20956;SDS011;10637;47.970;7.830;2023-05-10T16:08:37;9.50;;;2.27;;
20956;SDS011;10637;47.970;7.830;2023-05-10T16:13:39;4.90;;;1.50;;
20956;SDS011;10637;47.970;7.830;2023-05-10T16:18:41;5.37;;;1.50;;
20956;SDS011;10637;47.970;7.830;2023-05-10T16:23:43;8.30;;;1.70;;
20956;SDS011;10637;47.970;7.830;2023-05-10T16:28:47;8.23;;;1.60;;
20956;SDS011;10637;47.970;7.830;2023-05-10T16:33:49;6.20;;;1.53;;
20956;SDS011;10637;47.970;7.830;2023-05-10T16:38:51;9.07;;;2.03;;
20956;SDS011;10637;47.970;7.830;2023-05-10T16:43:53;5.97;;;1.40;;
20956;SDS011;10637;47.970;7.830;2023-05-10T16:48:55;10.43;;;3.40;;
20956;SDS011;10637;47.970;7.830;2023-05-10T16:53:56;4.97;;;1.30;;
20956;SDS011;10637;47.970;7.830;2023-05-10T16:58:59;7.30;;;1.40;;
20956;SDS011;10637;47.970;7.830;2023-05-10T17:04:00;5.63;;;1.40;;
20956;SDS011;10637;47.970;7.830;2023-05-10T17:09:03;3.50;;;1.10;;
20956;SDS011;10637;47.970;7.830;2023-05-10T17:14:05;3.93;;;1.20;;
20956;SDS011;10637;47.970;7.830;2023-05-10T17:19:07;3.47;;;1.10;;
20956;SDS011;10637;47.970;7.830;2023-05-10T17:24:09;4.90;;;1.30;;
20956;SDS011;10637;47.970;7.830;2023-05-10T17:29:11;4.03;;;1.30;;
20956;SDS011;10637;47.970;7.830;2023-05-10T17:34:14;5.63;;;1.30;;
20956;SDS011;10637;47.970;7.830;2023-05-10T17:39:16;4.97;;;1.30;;
20956;SDS011;10637;47.970;7.830;2023-05-10T17:44:17;3.90;;;1.30;;
20956;SDS011;10637;47.970;7.830;2023-05-10T17:49:19;4.43;;;1.40;;
20956;SDS011;10637;47.970;7.830;2023-05-10T17:54:21;4.47;;;1.40;;
20956;SDS011;10637;47.970;7.830;2023-05-10T17:59:22;4.13;;;1.10;;
20956;SDS011;10637;47.970;7.830;2023-05-10T18:04:24;3.17;;;1.20;;
20956;SDS011;10637;47.970;7.830;2023-05-10T18:09:26;5.40;;;1.23;;
20956;SDS011;10637;47.970;7.830;2023-05-10T18:14:29;5.37;;;1.43;;
20956;SDS011;10637;47.970;7.830;2023-05-10T18:19:41;6.80;;;1.80;;
20956;SDS011;10637;47.970;7.830;2023-05-10T18:24:43;4.80;;;1.40;;
20956;SDS011;10637;47.970;7.830;2023-05-10T18:29:44;5.17;;;1.47;;
20956;SDS011;10637;47.970;7.830;2023-05-10T18:34:46;4.87;;;1.20;;
20956;SDS011;10637;47.970;7.830;2023-05-10T18:39:48;4.37;;;1.27;;
20956;SDS011;10637;47.970;7.830;2023-05-10T18:44:50;5.07;;;1.60;;
20956;SDS011;10637;47.970;7.830;2023-05-10T18:49:52;4.40;;;1.30;;
20956;SDS011;10637;47.970;7.830;2023-05-10T18:54:55;3.73;;;1.30;;
20956;SDS011;10637;47.970;7.830;2023-05-10T18:59:57;3.90;;;1.20;;
20956;SDS011;10637;47.970;7.830;2023-05-10T19:04:58;3.50;;;1.20;;
20956;SDS011;10637;47.970;7.830;2023-05-10T19:10:01;5.97;;;1.33;;
20956;SDS011;10637;47.970;7.830;2023-05-10T19:15:03;4.83;;;1.30;;
20956;SDS011;10637;47.970;7.830;2023-05-10T19:20:05;4.50;;;1.47;;
20956;SDS011;10637;47.970;7.830;2023-05-10T19:25:08;4.17;;;1.40;;
20956;SDS011;10637;47.970;7.830;2023-05-10T19:30:11;4.87;;;1.43;;
20956;SDS011;10637;47.970;7.830;2023-05-10T19:35:13;4.40;;;1.50;;
20956;SDS011;10637;47.970;7.830;2023-05-10T19:40:16;3.97;;;1.40;;
20956;SDS011;10637;47.970;7.830;2023-05-10T19:45:18;7.30;;;1.50;;
20956;SDS011;10637;47.970;7.830;2023-05-10T19:50:20;5.10;;;1.63;;
20956;SDS011;10637;47.970;7.830;2023-05-10T19:55:26;3.73;;;1.40;;
20956;SDS011;10637;47.970;7.830;2023-05-10T20:00:30;3.87;;;1.40;;
20956;SDS011;10637;47.970;7.830;2023-05-10T20:05:32;5.93;;;1.63;;
20956;SDS011;10637;47.970;7.830;2023-05-10T20:10:33;5.47;;;1.67;;
20956;SDS011;10637;47.970;7.830;2023-05-10T20:15:35;4.73;;;1.63;;
20956;SDS011;10637;47.970;7.830;2023-05-10T20:20:37;4.83;;;1.40;;
20956;SDS011;10637;47.970;7.830;2023-05-10T20:25:39;8.77;;;1.80;;
20956;SDS011;10637;47.970;7.830;2023-05-10T20:30:41;6.73;;;1.60;;
20956;SDS011;10637;47.970;7.830;2023-05-10T20:35:43;5.13;;;1.63;;
20956;SDS011;10637;47.970;7.830;2023-05-10T20:40:45;5.80;;;1.70;;
20956;SDS011;10637;47.970;7.830;2023-05-10T20:45:47;5.77;;;1.60;;
20956;SDS011;10637;47.970;7.830;2023-05-10T20:50:49;6.23;;;1.60;;
20956;SDS011;10637;47.970;7.830;2023-05-10T20:55:51;5.37;;;1.70;;
20956;SDS011;10637;47.970;7.830;2023-05-10T21:00:53;6.33;;;1.63;;
20956;SDS011;10637;47.970;7.830;2023-05-10T21:05:55;4.93;;;1.50;;
20956;SDS011;10637;47.970;7.830;2023-05-10T21:10:57;3.77;;;1.50;;
20956;SDS011;10637;47.970;7.830;2023-05-10T21:16:01;5.63;;;1.50;;
20956;SDS011;10637;47.970;7.830;2023-05-10T21:21:04;6.13;;;1.60;;
20956;SDS011;10637;47.970;7.830;2023-05-10T21:26:05;4.97;;;1.50;;
20956;SDS011;10637;47.970;7.830;2023-05-10T21:31:07;7.27;;;1.80;;
20956;SDS011;10637;47.970;7.830;2023-05-10T21:36:09;5.83;;;1.70;;
20956;SDS011;10637;47.970;7.830;2023-05-10T21:41:11;6.10;;;1.93;;
20956;SDS011;10637;47.970;7.830;2023-05-10T21:46:13;6.37;;;1.83;;
20956;SDS011;10637;47.970;7.830;2023-05-10T21:51:15;6.37;;;1.93;;
20956;SDS011;10637;47.970;7.830;2023-05-10T21:56:17;6.23;;;1.80;;
20956;SDS011;10637;47.970;7.830;2023-05-10T22:01:18;7.83;;;1.90;;
20956;SDS011;10637;47.970;7.830;2023-05-10T22:06:20;6.50;;;2.07;;
20956;SDS011;10637;47.970;7.830;2023-05-10T22:11:22;9.13;;;2.37;;
20956;SDS011;10637;47.970;7.830;2023-05-10T22:16:24;8.63;;;2.27;;
20956;SDS011;10637;47.970;7.830;2023-05-10T22:21:26;6.57;;;2.00;;
20956;SDS011;10637;47.970;7.830;2023-05-10T22:26:27;8.63;;;2.27;;
20956;SDS011;10637;47.970;7.830;2023-05-10T22:31:29;7.50;;;2.20;;
20956;SDS011;10637;47.970;7.830;2023-05-10T22:36:31;6.50;;;2.20;;
20956;SDS011;10637;47.970;7.830;2023-05-10T22:41:33;6.23;;;2.20;;
20956;SDS011;10637;47.970;7.830;2023-05-10T22:46:35;7.40;;;2.13;;
20956;SDS011;10637;47.970;7.830;2023-05-10T22:51:37;9.20;;;2.20;;
20956;SDS011;10637;47.970;7.830;2023-05-10T22:56:39;6.60;;;2.03;;
20956;SDS011;10637;47.970;7.830;2023-05-10T23:01:41;6.70;;;2.10;;
20956;SDS011;10637;47.970;7.830;2023-05-10T23:06:43;6.43;;;2.03;;
20956;SDS011;10637;47.970;7.830;2023-05-10T23:11:46;7.80;;;2.10;;
20956;SDS011;10637;47.970;7.830;2023-05-10T23:16:47;6.27;;;1.80;;
20956;SDS011;10637;47.970;7.830;2023-05-10T23:21:49;6.77;;;2.13;;
20956;SDS011;10637;47.970;7.830;2023-05-10T23:26:51;6.00;;;1.90;;
20956;SDS011;10637;47.970;7.830;2023-05-10T23:31:52;10.10;;;2.23;;
20956;SDS011;10637;47.970;7.830;2023-05-10T23:36:54;6.37;;;2.07;;
20956;SDS011;10637;47.970;7.830;2023-05-10T23:41:56;8.87;;;2.10;;
20956;SDS011;10637;47.970;7.830;2023-05-10T23:46:58;9.40;;;2.40;;
20956;SDS011;10637;47.970;7.830;2023-05-10T23:51:59;8.20;;;2.27;;
20956;SDS011;10637;47.970;7.830;2023-05-10T23:57:01;7.93;;;2.17;;
